Главная страница
METAR-TAF:

METAR-TAF

Аэропорты :

Air Force Base Waterkloof

Waterkloof, Южно-Африканская Республика

широта: 25-50S, долгота: 028-13E, высота над уровнем моря: 1498 м

Текущие метеонаблюдения

Эта сводка был подготовлена 8 часа и 19 минут назад, в 04:00 UTC
Ветер 6 Узел от восточно-северо-восточный
Температура
Давление 1020 hPa

METAR: FAWK 190400Z AUTO 06006KT //// // ////// ///// Q1020

Время: 14:19 (12:19 UTC)

Прогноз

Эта сводка был подготовлена 9 часа и 19 минут назад, в 03:00 UTC
Прогноз действительный с 19-го 04 UTC до 19-го 15 UTC
Ветер 3 Узел переменных направлений
Видимость 10 км и более
Нет облачности ниже 1500 м, и нет кучево-дождевой облачности
изменения
С 19-го 06 UTC до 19-го 08 UTC
Ветер 10 Узел от северно-северо-западный

TAF: FAWK 190300Z 1904/1915 VRB03KT CAVOK BECMG 1906/1908 33010KT TX31/1913Z TN18/1904Z

Метеонаблюдения и прогнозы для более 4000 аэропортов (сводки METAR и TAF).

Имеющиеся станции представлены на карте желтыми и красными точками.

Чтобы увидеть название станции, наведите на нее мышь.

Затем щелкните, чтобы увидеть метеонаблюдения и метеопрогнозы.

Управление картой: чтобы увеличить масштаб, щелкните зеленые кнопки с черным крестиком; чтобы уменьшить масштаб, щелкните зеленую кнопку с тире; для просмотра соседних карт щелкайте зеленые стрелки.


METAR-TAF: